sensor_id;sensor_type;location;lat;lon;timestamp;P1;durP1;ratioP1;P2;durP2;ratioP2
43297;SDS011;28892;55.640;37.532;2023-05-29T00:01:33;5.45;;;2.55;;
43297;SDS011;28892;55.640;37.532;2023-05-29T00:04:01;4.70;;;2.72;;
43297;SDS011;28892;55.640;37.532;2023-05-29T00:06:36;4.57;;;2.72;;
43297;SDS011;28892;55.640;37.532;2023-05-29T00:09:19;7.28;;;2.95;;
43297;SDS011;28892;55.640;37.532;2023-05-29T00:12:04;5.45;;;2.75;;
43297;SDS011;28892;55.640;37.532;2023-05-29T00:14:55;4.72;;;2.60;;
43297;SDS011;28892;55.640;37.532;2023-05-29T00:20:43;4.80;;;2.70;;
43297;SDS011;28892;55.640;37.532;2023-05-29T00:27:47;5.85;;;2.83;;
43297;SDS011;28892;55.640;37.532;2023-05-29T00:30:22;4.85;;;2.90;;
43297;SDS011;28892;55.640;37.532;2023-05-29T00:33:00;4.65;;;2.58;;
43297;SDS011;28892;55.640;37.532;2023-05-29T00:35:45;6.32;;;2.92;;
43297;SDS011;28892;55.640;37.532;2023-05-29T00:38:14;5.70;;;2.40;;
43297;SDS011;28892;55.640;37.532;2023-05-29T00:41:39;5.30;;;3.00;;
43297;SDS011;28892;55.640;37.532;2023-05-29T00:47:20;5.07;;;2.70;;
43297;SDS011;28892;55.640;37.532;2023-05-29T00:49:49;5.00;;;2.70;;
43297;SDS011;28892;55.640;37.532;2023-05-29T00:52:23;4.32;;;2.88;;
43297;SDS011;28892;55.640;37.532;2023-05-29T00:55:02;9.13;;;2.70;;
43297;SDS011;28892;55.640;37.532;2023-05-29T00:57:42;3.85;;;2.60;;
43297;SDS011;28892;55.640;37.532;2023-05-29T01:00:28;3.78;;;2.45;;
43297;SDS011;28892;55.640;37.532;2023-05-29T01:03:03;4.85;;;2.70;;
43297;SDS011;28892;55.640;37.532;2023-05-29T01:05:46;4.30;;;2.28;;
43297;SDS011;28892;55.640;37.532;2023-05-29T01:08:36;4.13;;;2.53;;
43297;SDS011;28892;55.640;37.532;2023-05-29T01:11:19;7.32;;;3.22;;
43297;SDS011;28892;55.640;37.532;2023-05-29T01:14:03;3.58;;;2.38;;
43297;SDS011;28892;55.640;37.532;2023-05-29T01:16:42;4.05;;;2.65;;
43297;SDS011;28892;55.640;37.532;2023-05-29T01:28:01;6.50;;;2.83;;
43297;SDS011;28892;55.640;37.532;2023-05-29T01:30:33;5.15;;;2.50;;
43297;SDS011;28892;55.640;37.532;2023-05-29T01:33:00;4.38;;;2.95;;
43297;SDS011;28892;55.640;37.532;2023-05-29T01:35:30;5.40;;;2.50;;
43297;SDS011;28892;55.640;37.532;2023-05-29T01:38:00;5.15;;;2.78;;
43297;SDS011;28892;55.640;37.532;2023-05-29T01:40:28;3.53;;;2.20;;
43297;SDS011;28892;55.640;37.532;2023-05-29T01:42:54;4.85;;;2.13;;
43297;SDS011;28892;55.640;37.532;2023-05-29T01:45:23;4.53;;;2.95;;
43297;SDS011;28892;55.640;37.532;2023-05-29T01:47:53;3.83;;;2.47;;
43297;SDS011;28892;55.640;37.532;2023-05-29T01:50:24;5.95;;;2.60;;
43297;SDS011;28892;55.640;37.532;2023-05-29T01:52:50;9.35;;;2.50;;
43297;SDS011;28892;55.640;37.532;2023-05-29T01:55:16;2.72;;;2.30;;
43297;SDS011;28892;55.640;37.532;2023-05-29T01:57:45;5.32;;;2.67;;
43297;SDS011;28892;55.640;37.532;2023-05-29T02:00:11;4.50;;;2.60;;
43297;SDS011;28892;55.640;37.532;2023-05-29T02:02:46;4.20;;;2.40;;
43297;SDS011;28892;55.640;37.532;2023-05-29T02:05:14;5.22;;;2.60;;
43297;SDS011;28892;55.640;37.532;2023-05-29T02:07:46;6.80;;;2.35;;
43297;SDS011;28892;55.640;37.532;2023-05-29T02:10:20;5.05;;;2.30;;
43297;SDS011;28892;55.640;37.532;2023-05-29T02:13:09;4.30;;;2.30;;
43297;SDS011;28892;55.640;37.532;2023-05-29T02:15:44;3.15;;;2.20;;
43297;SDS011;28892;55.640;37.532;2023-05-29T02:18:14;5.38;;;2.58;;
43297;SDS011;28892;55.640;37.532;2023-05-29T02:20:45;5.07;;;2.58;;
43297;SDS011;28892;55.640;37.532;2023-05-29T02:23:22;5.32;;;2.67;;
43297;SDS011;28892;55.640;37.532;2023-05-29T02:29:10;4.18;;;2.55;;
43297;SDS011;28892;55.640;37.532;2023-05-29T02:31:36;4.13;;;2.42;;
43297;SDS011;28892;55.640;37.532;2023-05-29T02:34:17;6.38;;;2.42;;
43297;SDS011;28892;55.640;37.532;2023-05-29T02:36:43;7.32;;;2.50;;
43297;SDS011;28892;55.640;37.532;2023-05-29T02:39:09;4.38;;;2.53;;
43297;SDS011;28892;55.640;37.532;2023-05-29T02:41:38;3.88;;;2.50;;
43297;SDS011;28892;55.640;37.532;2023-05-29T02:44:04;4.57;;;2.30;;
43297;SDS011;28892;55.640;37.532;2023-05-29T02:46:29;5.38;;;2.67;;
43297;SDS011;28892;55.640;37.532;2023-05-29T02:48:55;3.53;;;2.17;;
43297;SDS011;28892;55.640;37.532;2023-05-29T02:51:21;4.07;;;2.53;;
43297;SDS011;28892;55.640;37.532;2023-05-29T02:53:50;5.53;;;2.47;;
43297;SDS011;28892;55.640;37.532;2023-05-29T02:56:15;3.90;;;2.10;;
43297;SDS011;28892;55.640;37.532;2023-05-29T02:58:41;5.68;;;2.85;;
43297;SDS011;28892;55.640;37.532;2023-05-29T03:01:07;5.70;;;2.42;;
43297;SDS011;28892;55.640;37.532;2023-05-29T03:03:34;4.70;;;2.50;;
43297;SDS011;28892;55.640;37.532;2023-05-29T03:06:00;3.15;;;2.30;;
43297;SDS011;28892;55.640;37.532;2023-05-29T03:08:26;4.53;;;2.70;;
43297;SDS011;28892;55.640;37.532;2023-05-29T03:10:54;3.67;;;2.20;;
43297;SDS011;28892;55.640;37.532;2023-05-29T03:13:20;5.85;;;2.92;;
43297;SDS011;28892;55.640;37.532;2023-05-29T03:16:01;7.97;;;2.70;;
43297;SDS011;28892;55.640;37.532;2023-05-29T03:18:27;6.03;;;2.50;;
43297;SDS011;28892;55.640;37.532;2023-05-29T03:21:05;3.50;;;2.50;;
43297;SDS011;28892;55.640;37.532;2023-05-29T03:23:34;3.60;;;2.63;;
43297;SDS011;28892;55.640;37.532;2023-05-29T03:26:07;4.30;;;2.17;;
43297;SDS011;28892;55.640;37.532;2023-05-29T03:28:58;3.53;;;2.55;;
43297;SDS011;28892;55.640;37.532;2023-05-29T03:31:24;3.90;;;2.15;;
43297;SDS011;28892;55.640;37.532;2023-05-29T03:33:50;2.85;;;2.28;;
43297;SDS011;28892;55.640;37.532;2023-05-29T03:36:21;4.78;;;2.20;;
43297;SDS011;28892;55.640;37.532;2023-05-29T03:38:48;8.65;;;2.35;;
43297;SDS011;28892;55.640;37.532;2023-05-29T03:41:13;4.50;;;2.42;;
43297;SDS011;28892;55.640;37.532;2023-05-29T03:43:40;2.65;;;1.80;;
43297;SDS011;28892;55.640;37.532;2023-05-29T03:46:09;4.60;;;2.17;;
43297;SDS011;28892;55.640;37.532;2023-05-29T03:48:36;4.80;;;2.17;;
43297;SDS011;28892;55.640;37.532;2023-05-29T03:51:02;3.65;;;2.50;;
43297;SDS011;28892;55.640;37.532;2023-05-29T03:53:33;5.43;;;2.10;;
43297;SDS011;28892;55.640;37.532;2023-05-29T03:55:59;4.65;;;2.17;;
43297;SDS011;28892;55.640;37.532;2023-05-29T03:58:25;6.95;;;2.00;;
43297;SDS011;28892;55.640;37.532;2023-05-29T04:01:00;2.65;;;2.30;;
43297;SDS011;28892;55.640;37.532;2023-05-29T04:03:28;3.15;;;2.20;;
43297;SDS011;28892;55.640;37.532;2023-05-29T04:05:55;5.28;;;2.13;;
43297;SDS011;28892;55.640;37.532;2023-05-29T04:08:21;4.00;;;2.00;;
43297;SDS011;28892;55.640;37.532;2023-05-29T04:10:47;4.13;;;2.00;;
43297;SDS011;28892;55.640;37.532;2023-05-29T04:13:12;3.65;;;1.98;;
43297;SDS011;28892;55.640;37.532;2023-05-29T04:15:38;4.28;;;2.15;;
43297;SDS011;28892;55.640;37.532;2023-05-29T04:18:04;3.55;;;2.15;;
43297;SDS011;28892;55.640;37.532;2023-05-29T04:20:32;4.18;;;1.88;;
43297;SDS011;28892;55.640;37.532;2023-05-29T04:22:58;5.05;;;2.10;;
43297;SDS011;28892;55.640;37.532;2023-05-29T04:25:24;4.32;;;2.20;;
43297;SDS011;28892;55.640;37.532;2023-05-29T04:27:50;3.80;;;2.08;;
43297;SDS011;28892;55.640;37.532;2023-05-29T04:30:18;4.72;;;1.80;;
43297;SDS011;28892;55.640;37.532;2023-05-29T04:32:47;6.07;;;2.22;;
43297;SDS011;28892;55.640;37.532;2023-05-29T04:35:14;5.15;;;2.17;;
43297;SDS011;28892;55.640;37.532;2023-05-29T04:37:54;4.68;;;2.00;;
43297;SDS011;28892;55.640;37.532;2023-05-29T04:40:33;2.45;;;2.13;;
43297;SDS011;28892;55.640;37.532;2023-05-29T04:44:04;6.25;;;2.05;;
43297;SDS011;28892;55.640;37.532;2023-05-29T04:46:55;4.97;;;2.00;;
43297;SDS011;28892;55.640;37.532;2023-05-29T04:49:29;4.47;;;2.33;;
43297;SDS011;28892;55.640;37.532;2023-05-29T04:52:14;4.28;;;2.35;;
43297;SDS011;28892;55.640;37.532;2023-05-29T04:55:27;2.95;;;2.22;;
43297;SDS011;28892;55.640;37.532;2023-05-29T04:58:20;3.65;;;2.40;;
43297;SDS011;28892;55.640;37.532;2023-05-29T05:00:49;2.70;;;2.20;;
43297;SDS011;28892;55.640;37.532;2023-05-29T05:03:15;5.70;;;2.17;;
43297;SDS011;28892;55.640;37.532;2023-05-29T05:06:11;3.50;;;2.15;;
43297;SDS011;28892;55.640;37.532;2023-05-29T05:08:59;3.92;;;2.00;;
43297;SDS011;28892;55.640;37.532;2023-05-29T05:11:59;3.78;;;2.40;;
43297;SDS011;28892;55.640;37.532;2023-05-29T05:14:27;5.50;;;1.63;;
43297;SDS011;28892;55.640;37.532;2023-05-29T05:17:05;3.92;;;1.92;;
43297;SDS011;28892;55.640;37.532;2023-05-29T05:23:36;3.28;;;1.75;;
43297;SDS011;28892;55.640;37.532;2023-05-29T05:26:06;7.85;;;3.00;;
43297;SDS011;28892;55.640;37.532;2023-05-29T05:28:38;2.58;;;1.77;;
43297;SDS011;28892;55.640;37.532;2023-05-29T05:32:03;4.40;;;1.80;;
43297;SDS011;28892;55.640;37.532;2023-05-29T05:34:30;5.63;;;1.70;;
43297;SDS011;28892;55.640;37.532;2023-05-29T05:36:56;2.47;;;1.77;;
43297;SDS011;28892;55.640;37.532;2023-05-29T05:39:28;2.63;;;1.80;;
43297;SDS011;28892;55.640;37.532;2023-05-29T05:42:01;5.18;;;2.10;;
43297;SDS011;28892;55.640;37.532;2023-05-29T05:44:43;3.53;;;1.63;;
43297;SDS011;28892;55.640;37.532;2023-05-29T05:47:12;5.28;;;2.55;;
43297;SDS011;28892;55.640;37.532;2023-05-29T05:49:46;1.95;;;1.58;;
43297;SDS011;28892;55.640;37.532;2023-05-29T05:52:17;4.38;;;2.20;;
43297;SDS011;28892;55.640;37.532;2023-05-29T05:54:48;2.22;;;1.50;;
43297;SDS011;28892;55.640;37.532;2023-05-29T05:57:16;2.45;;;1.60;;
43297;SDS011;28892;55.640;37.532;2023-05-29T06:08:03;1.85;;;1.00;;
43297;SDS011;28892;55.640;37.532;2023-05-29T06:11:24;2.55;;;1.42;;
43297;SDS011;28892;55.640;37.532;2023-05-29T06:14:30;2.85;;;1.80;;
43297;SDS011;28892;55.640;37.532;2023-05-29T06:17:12;3.03;;;1.10;;
43297;SDS011;28892;55.640;37.532;2023-05-29T06:20:04;1.77;;;1.40;;
43297;SDS011;28892;55.640;37.532;2023-05-29T06:23:25;1.23;;;1.13;;
43297;SDS011;28892;55.640;37.532;2023-05-29T06:26:41;4.22;;;1.30;;
43297;SDS011;28892;55.640;37.532;2023-05-29T06:29:41;1.50;;;1.00;;
43297;SDS011;28892;55.640;37.532;2023-05-29T06:33:14;1.70;;;1.10;;
43297;SDS011;28892;55.640;37.532;2023-05-29T06:36:04;5.15;;;1.30;;
43297;SDS011;28892;55.640;37.532;2023-05-29T06:38:49;2.22;;;1.20;;
43297;SDS011;28892;55.640;37.532;2023-05-29T06:41:26;2.83;;;1.20;;
43297;SDS011;28892;55.640;37.532;2023-05-29T06:44:31;2.57;;;1.20;;
43297;SDS011;28892;55.640;37.532;2023-05-29T06:57:40;2.33;;;1.17;;
43297;SDS011;28892;55.640;37.532;2023-05-29T07:00:06;2.67;;;1.48;;
43297;SDS011;28892;55.640;37.532;2023-05-29T07:02:41;2.10;;;1.10;;
43297;SDS011;28892;55.640;37.532;2023-05-29T07:08:27;2.00;;;1.05;;
43297;SDS011;28892;55.640;37.532;2023-05-29T07:11:09;1.73;;;1.17;;
43297;SDS011;28892;55.640;37.532;2023-05-29T07:13:44;2.58;;;1.30;;
43297;SDS011;28892;55.640;37.532;2023-05-29T07:16:49;2.25;;;1.20;;
43297;SDS011;28892;55.640;37.532;2023-05-29T07:19:26;4.25;;;1.13;;
43297;SDS011;28892;55.640;37.532;2023-05-29T07:22:31;1.25;;;0.95;;
43297;SDS011;28892;55.640;37.532;2023-05-29T07:25:27;2.05;;;1.30;;
43297;SDS011;28892;55.640;37.532;2023-05-29T07:28:12;3.35;;;1.10;;
43297;SDS011;28892;55.640;37.532;2023-05-29T07:30:54;1.40;;;1.10;;
43297;SDS011;28892;55.640;37.532;2023-05-29T07:40:20;1.33;;;1.23;;
43297;SDS011;28892;55.640;37.532;2023-05-29T07:43:42;2.58;;;1.50;;
43297;SDS011;28892;55.640;37.532;2023-05-29T07:46:08;1.73;;;1.40;;
43297;SDS011;28892;55.640;37.532;2023-05-29T07:48:41;2.25;;;1.50;;
43297;SDS011;28892;55.640;37.532;2023-05-29T07:57:50;2.15;;;1.40;;
43297;SDS011;28892;55.640;37.532;2023-05-29T08:03:48;1.30;;;1.20;;
43297;SDS011;28892;55.640;37.532;2023-05-29T08:06:28;4.55;;;1.10;;
43297;SDS011;28892;55.640;37.532;2023-05-29T08:08:54;2.83;;;1.48;;
43297;SDS011;28892;55.640;37.532;2023-05-29T08:23:25;3.40;;;1.13;;
43297;SDS011;28892;55.640;37.532;2023-05-29T08:30:20;1.90;;;1.20;;
43297;SDS011;28892;55.640;37.532;2023-05-29T08:33:16;1.90;;;1.60;;
43297;SDS011;28892;55.640;37.532;2023-05-29T08:43:31;1.98;;;1.42;;
43297;SDS011;28892;55.640;37.532;2023-05-29T08:50:21;3.97;;;1.80;;
43297;SDS011;28892;55.640;37.532;2023-05-29T09:36:22;1.70;;;1.60;;
43297;SDS011;28892;55.640;37.532;2023-05-29T09:38:54;2.72;;;1.50;;
43297;SDS011;28892;55.640;37.532;2023-05-29T09:41:56;3.63;;;1.65;;
43297;SDS011;28892;55.640;37.532;2023-05-29T09:49:44;2.85;;;1.52;;
43297;SDS011;28892;55.640;37.532;2023-05-29T09:52:12;1.60;;;1.30;;
43297;SDS011;28892;55.640;37.532;2023-05-29T09:55:03;1.73;;;1.30;;
43297;SDS011;28892;55.640;37.532;2023-05-29T09:57:39;1.40;;;1.30;;
43297;SDS011;28892;55.640;37.532;2023-05-29T10:01:26;1.67;;;1.15;;
43297;SDS011;28892;55.640;37.532;2023-05-29T10:04:08;1.80;;;1.45;;
43297;SDS011;28892;55.640;37.532;2023-05-29T10:07:16;5.50;;;1.50;;
43297;SDS011;28892;55.640;37.532;2023-05-29T10:10:00;2.35;;;1.30;;
43297;SDS011;28892;55.640;37.532;2023-05-29T10:13:12;2.17;;;1.23;;
43297;SDS011;28892;55.640;37.532;2023-05-29T10:16:08;2.67;;;1.42;;
43297;SDS011;28892;55.640;37.532;2023-05-29T10:19:04;3.45;;;1.40;;
43297;SDS011;28892;55.640;37.532;2023-05-29T10:24:49;4.18;;;1.88;;
43297;SDS011;28892;55.640;37.532;2023-05-29T10:31:30;2.38;;;1.10;;
43297;SDS011;28892;55.640;37.532;2023-05-29T10:36:58;1.27;;;1.17;;
43297;SDS011;28892;55.640;37.532;2023-05-29T10:39:42;3.17;;;1.48;;
43297;SDS011;28892;55.640;37.532;2023-05-29T10:48:57;3.83;;;1.35;;
43297;SDS011;28892;55.640;37.532;2023-05-29T10:51:30;2.05;;;1.25;;
43297;SDS011;28892;55.640;37.532;2023-05-29T10:53:58;3.90;;;1.48;;
43297;SDS011;28892;55.640;37.532;2023-05-29T10:56:27;2.78;;;1.50;;
43297;SDS011;28892;55.640;37.532;2023-05-29T10:58:55;1.50;;;1.38;;
43297;SDS011;28892;55.640;37.532;2023-05-29T11:01:23;5.50;;;1.65;;
43297;SDS011;28892;55.640;37.532;2023-05-29T11:06:46;2.88;;;1.58;;
43297;SDS011;28892;55.640;37.532;2023-05-29T11:12:17;1.98;;;1.50;;
43297;SDS011;28892;55.640;37.532;2023-05-29T11:15:05;3.95;;;1.17;;
43297;SDS011;28892;55.640;37.532;2023-05-29T11:39:29;1.20;;;1.10;;
43297;SDS011;28892;55.640;37.532;2023-05-29T11:42:11;3.75;;;1.65;;
43297;SDS011;28892;55.640;37.532;2023-05-29T11:52:17;1.90;;;1.27;;
43297;SDS011;28892;55.640;37.532;2023-05-29T12:04:08;2.55;;;1.20;;
43297;SDS011;28892;55.640;37.532;2023-05-29T12:06:51;2.05;;;1.55;;
43297;SDS011;28892;55.640;37.532;2023-05-29T12:09:29;3.10;;;1.45;;
43297;SDS011;28892;55.640;37.532;2023-05-29T12:15:49;2.65;;;1.38;;
43297;SDS011;28892;55.640;37.532;2023-05-29T12:18:17;1.58;;;1.17;;
43297;SDS011;28892;55.640;37.532;2023-05-29T12:20:44;1.58;;;1.35;;
43297;SDS011;28892;55.640;37.532;2023-05-29T12:23:17;1.55;;;1.35;;
43297;SDS011;28892;55.640;37.532;2023-05-29T12:26:18;2.35;;;1.38;;
43297;SDS011;28892;55.640;37.532;2023-05-29T12:33:48;3.15;;;1.30;;
43297;SDS011;28892;55.640;37.532;2023-05-29T12:40:28;2.05;;;1.30;;
43297;SDS011;28892;55.640;37.532;2023-05-29T12:43:54;3.80;;;1.45;;
43297;SDS011;28892;55.640;37.532;2023-05-29T12:46:25;4.55;;;1.50;;
43297;SDS011;28892;55.640;37.532;2023-05-29T12:56:18;2.47;;;1.63;;
43297;SDS011;28892;55.640;37.532;2023-05-29T13:02:58;3.80;;;1.58;;
43297;SDS011;28892;55.640;37.532;2023-05-29T13:10:17;2.58;;;1.42;;
43297;SDS011;28892;55.640;37.532;2023-05-29T13:13:02;2.25;;;1.40;;
43297;SDS011;28892;55.640;37.532;2023-05-29T13:15:58;2.20;;;1.48;;
43297;SDS011;28892;55.640;37.532;2023-05-29T13:18:58;2.35;;;1.40;;
43297;SDS011;28892;55.640;37.532;2023-05-29T13:21:42;2.35;;;1.30;;
43297;SDS011;28892;55.640;37.532;2023-05-29T13:25:11;2.78;;;1.48;;
43297;SDS011;28892;55.640;37.532;2023-05-29T13:28:15;3.67;;;1.40;;
43297;SDS011;28892;55.640;37.532;2023-05-29T13:31:31;2.88;;;1.50;;
43297;SDS011;28892;55.640;37.532;2023-05-29T13:34:08;2.97;;;1.50;;
43297;SDS011;28892;55.640;37.532;2023-05-29T13:36:39;1.67;;;1.35;;
43297;SDS011;28892;55.640;37.532;2023-05-29T13:39:20;3.03;;;1.55;;
43297;SDS011;28892;55.640;37.532;2023-05-29T13:41:59;3.15;;;1.50;;
43297;SDS011;28892;55.640;37.532;2023-05-29T13:44:41;2.47;;;1.40;;
43297;SDS011;28892;55.640;37.532;2023-05-29T13:47:07;1.92;;;1.60;;
43297;SDS011;28892;55.640;37.532;2023-05-29T13:49:36;2.63;;;1.50;;
43297;SDS011;28892;55.640;37.532;2023-05-29T13:52:03;2.25;;;1.35;;
43297;SDS011;28892;55.640;37.532;2023-05-29T13:54:47;2.03;;;1.48;;
43297;SDS011;28892;55.640;37.532;2023-05-29T13:57:15;10.35;;;1.50;;
43297;SDS011;28892;55.640;37.532;2023-05-29T14:00:09;1.60;;;1.40;;
43297;SDS011;28892;55.640;37.532;2023-05-29T14:02:40;4.47;;;1.52;;
43297;SDS011;28892;55.640;37.532;2023-05-29T14:08:08;5.63;;;1.85;;
43297;SDS011;28892;55.640;37.532;2023-05-29T14:11:03;2.80;;;1.48;;
43297;SDS011;28892;55.640;37.532;2023-05-29T14:14:00;2.88;;;1.45;;
43297;SDS011;28892;55.640;37.532;2023-05-29T14:16:29;3.40;;;1.60;;
43297;SDS011;28892;55.640;37.532;2023-05-29T14:22:09;3.05;;;1.50;;
43297;SDS011;28892;55.640;37.532;2023-05-29T14:24:55;1.88;;;1.50;;
43297;SDS011;28892;55.640;37.532;2023-05-29T14:27:24;3.33;;;1.35;;
43297;SDS011;28892;55.640;37.532;2023-05-29T14:29:59;2.40;;;1.40;;
43297;SDS011;28892;55.640;37.532;2023-05-29T14:32:44;2.08;;;1.50;;
43297;SDS011;28892;55.640;37.532;2023-05-29T14:35:45;5.20;;;1.60;;
43297;SDS011;28892;55.640;37.532;2023-05-29T14:38:15;3.10;;;1.40;;
43297;SDS011;28892;55.640;37.532;2023-05-29T14:40:48;1.75;;;1.30;;
43297;SDS011;28892;55.640;37.532;2023-05-29T14:43:17;2.22;;;1.55;;
43297;SDS011;28892;55.640;37.532;2023-05-29T14:46:04;2.83;;;1.40;;
43297;SDS011;28892;55.640;37.532;2023-05-29T14:48:30;2.40;;;1.33;;
43297;SDS011;28892;55.640;37.532;2023-05-29T14:50:56;3.25;;;1.30;;
43297;SDS011;28892;55.640;37.532;2023-05-29T14:53:25;3.63;;;1.60;;
43297;SDS011;28892;55.640;37.532;2023-05-29T14:56:15;3.17;;;1.40;;
43297;SDS011;28892;55.640;37.532;2023-05-29T14:58:44;3.35;;;1.60;;
43297;SDS011;28892;55.640;37.532;2023-05-29T15:01:10;2.45;;;1.30;;
43297;SDS011;28892;55.640;37.532;2023-05-29T15:03:37;3.00;;;1.70;;
43297;SDS011;28892;55.640;37.532;2023-05-29T15:06:06;4.35;;;1.50;;
43297;SDS011;28892;55.640;37.532;2023-05-29T15:08:32;2.17;;;1.30;;
43297;SDS011;28892;55.640;37.532;2023-05-29T15:11:01;3.72;;;1.20;;
43297;SDS011;28892;55.640;37.532;2023-05-29T15:13:29;1.50;;;1.15;;
43297;SDS011;28892;55.640;37.532;2023-05-29T15:19:01;2.75;;;1.40;;
43297;SDS011;28892;55.640;37.532;2023-05-29T15:21:34;3.75;;;1.40;;
43297;SDS011;28892;55.640;37.532;2023-05-29T15:24:22;2.03;;;1.50;;
43297;SDS011;28892;55.640;37.532;2023-05-29T15:26:51;2.90;;;1.50;;
43297;SDS011;28892;55.640;37.532;2023-05-29T15:29:17;1.58;;;1.30;;
43297;SDS011;28892;55.640;37.532;2023-05-29T15:31:57;4.70;;;1.40;;
43297;SDS011;28892;55.640;37.532;2023-05-29T15:34:41;4.30;;;1.60;;
43297;SDS011;28892;55.640;37.532;2023-05-29T15:37:07;1.52;;;1.20;;
43297;SDS011;28892;55.640;37.532;2023-05-29T15:39:44;2.53;;;1.40;;
43297;SDS011;28892;55.640;37.532;2023-05-29T15:42:13;3.10;;;1.58;;
43297;SDS011;28892;55.640;37.532;2023-05-29T15:44:40;2.75;;;1.35;;
43297;SDS011;28892;55.640;37.532;2023-05-29T15:47:13;4.28;;;1.40;;
43297;SDS011;28892;55.640;37.532;2023-05-29T15:49:50;3.95;;;1.73;;
43297;SDS011;28892;55.640;37.532;2023-05-29T15:52:37;3.05;;;1.52;;
43297;SDS011;28892;55.640;37.532;2023-05-29T15:55:03;1.90;;;1.70;;
43297;SDS011;28892;55.640;37.532;2023-05-29T15:57:47;4.80;;;1.52;;
43297;SDS011;28892;55.640;37.532;2023-05-29T16:00:18;2.45;;;1.50;;
43297;SDS011;28892;55.640;37.532;2023-05-29T16:03:05;1.40;;;1.30;;
43297;SDS011;28892;55.640;37.532;2023-05-29T16:05:33;3.70;;;1.70;;
43297;SDS011;28892;55.640;37.532;2023-05-29T16:08:12;3.20;;;1.70;;
43297;SDS011;28892;55.640;37.532;2023-05-29T16:10:41;2.63;;;1.80;;
43297;SDS011;28892;55.640;37.532;2023-05-29T16:13:36;2.92;;;1.80;;
43297;SDS011;28892;55.640;37.532;2023-05-29T16:16:02;4.43;;;1.58;;
43297;SDS011;28892;55.640;37.532;2023-05-29T16:18:30;4.32;;;1.98;;
43297;SDS011;28892;55.640;37.532;2023-05-29T16:20:59;3.05;;;1.70;;
43297;SDS011;28892;55.640;37.532;2023-05-29T16:24:43;3.20;;;1.55;;
43297;SDS011;28892;55.640;37.532;2023-05-29T16:27:50;3.40;;;1.83;;
43297;SDS011;28892;55.640;37.532;2023-05-29T16:38:02;4.47;;;1.75;;
43297;SDS011;28892;55.640;37.532;2023-05-29T16:40:46;4.05;;;1.70;;
43297;SDS011;28892;55.640;37.532;2023-05-29T16:43:37;2.83;;;1.80;;
43297;SDS011;28892;55.640;37.532;2023-05-29T16:46:29;4.47;;;1.70;;
43297;SDS011;28892;55.640;37.532;2023-05-29T16:53:50;1.95;;;1.60;;
43297;SDS011;28892;55.640;37.532;2023-05-29T16:57:11;3.20;;;1.70;;
43297;SDS011;28892;55.640;37.532;2023-05-29T17:00:24;7.22;;;1.90;;
43297;SDS011;28892;55.640;37.532;2023-05-29T17:05:58;5.82;;;1.83;;
43297;SDS011;28892;55.640;37.532;2023-05-29T17:08:43;6.22;;;2.20;;
43297;SDS011;28892;55.640;37.532;2023-05-29T19:22:31;5.47;;;2.60;;
43297;SDS011;28892;55.640;37.532;2023-05-29T19:25:01;4.93;;;2.30;;
43297;SDS011;28892;55.640;37.532;2023-05-29T19:27:38;6.30;;;2.80;;
43297;SDS011;28892;55.640;37.532;2023-05-29T19:30:20;5.15;;;2.55;;
43297;SDS011;28892;55.640;37.532;2023-05-29T19:33:03;5.78;;;2.75;;
43297;SDS011;28892;55.640;37.532;2023-05-29T19:35:52;4.57;;;2.60;;
43297;SDS011;28892;55.640;37.532;2023-05-29T19:38:20;5.63;;;2.45;;
43297;SDS011;28892;55.640;37.532;2023-05-29T19:40:46;6.30;;;3.65;;
43297;SDS011;28892;55.640;37.532;2023-05-29T19:43:22;5.25;;;3.00;;
43297;SDS011;28892;55.640;37.532;2023-05-29T19:46:09;9.68;;;2.70;;
43297;SDS011;28892;55.640;37.532;2023-05-29T19:48:35;7.13;;;2.30;;
43297;SDS011;28892;55.640;37.532;2023-05-29T19:51:12;2.13;;;1.83;;
43297;SDS011;28892;55.640;37.532;2023-05-29T19:53:41;3.40;;;1.98;;
43297;SDS011;28892;55.640;37.532;2023-05-29T19:56:10;3.85;;;2.75;;
43297;SDS011;28892;55.640;37.532;2023-05-29T19:58:38;3.30;;;2.15;;
43297;SDS011;28892;55.640;37.532;2023-05-29T20:01:04;5.05;;;2.30;;
43297;SDS011;28892;55.640;37.532;2023-05-29T20:03:31;3.53;;;2.08;;
43297;SDS011;28892;55.640;37.532;2023-05-29T20:06:09;3.78;;;2.30;;
43297;SDS011;28892;55.640;37.532;2023-05-29T20:08:41;5.68;;;2.55;;
43297;SDS011;28892;55.640;37.532;2023-05-29T20:11:07;4.53;;;2.60;;
43297;SDS011;28892;55.640;37.532;2023-05-29T20:13:33;5.25;;;2.90;;
43297;SDS011;28892;55.640;37.532;2023-05-29T20:16:11;8.35;;;3.55;;
43297;SDS011;28892;55.640;37.532;2023-05-29T20:19:25;6.93;;;3.55;;
43297;SDS011;28892;55.640;37.532;2023-05-29T20:21:51;4.85;;;3.13;;
43297;SDS011;28892;55.640;37.532;2023-05-29T20:24:17;6.28;;;3.15;;
43297;SDS011;28892;55.640;37.532;2023-05-29T20:30:35;8.10;;;3.28;;
43297;SDS011;28892;55.640;37.532;2023-05-29T20:33:11;5.50;;;3.70;;
43297;SDS011;28892;55.640;37.532;2023-05-29T20:35:49;7.35;;;3.30;;
43297;SDS011;28892;55.640;37.532;2023-05-29T20:42:49;5.00;;;2.78;;
43297;SDS011;28892;55.640;37.532;2023-05-29T20:45:55;4.63;;;2.30;;
43297;SDS011;28892;55.640;37.532;2023-05-29T20:54:08;4.07;;;2.63;;
43297;SDS011;28892;55.640;37.532;2023-05-29T20:56:46;5.55;;;2.95;;
43297;SDS011;28892;55.640;37.532;2023-05-29T20:59:32;5.43;;;3.03;;
43297;SDS011;28892;55.640;37.532;2023-05-29T21:02:13;4.45;;;2.60;;
43297;SDS011;28892;55.640;37.532;2023-05-29T21:04:39;4.57;;;2.60;;
43297;SDS011;28892;55.640;37.532;2023-05-29T21:15:28;4.80;;;2.92;;
43297;SDS011;28892;55.640;37.532;2023-05-29T21:17:55;7.40;;;2.85;;
43297;SDS011;28892;55.640;37.532;2023-05-29T21:20:33;5.65;;;2.30;;
43297;SDS011;28892;55.640;37.532;2023-05-29T21:22:59;4.28;;;2.38;;
43297;SDS011;28892;55.640;37.532;2023-05-29T21:25:25;3.03;;;2.28;;
43297;SDS011;28892;55.640;37.532;2023-05-29T21:27:51;7.28;;;2.83;;
43297;SDS011;28892;55.640;37.532;2023-05-29T21:30:17;11.35;;;3.30;;
43297;SDS011;28892;55.640;37.532;2023-05-29T21:32:55;7.68;;;3.53;;
43297;SDS011;28892;55.640;37.532;2023-05-29T21:35:31;7.05;;;3.33;;
43297;SDS011;28892;55.640;37.532;2023-05-29T21:37:58;9.57;;;3.47;;
43297;SDS011;28892;55.640;37.532;2023-05-29T21:40:32;7.95;;;3.42;;
43297;SDS011;28892;55.640;37.532;2023-05-29T21:43:29;6.65;;;3.22;;
43297;SDS011;28892;55.640;37.532;2023-05-29T21:46:37;9.20;;;2.83;;
43297;SDS011;28892;55.640;37.532;2023-05-29T21:49:12;3.70;;;2.65;;
43297;SDS011;28892;55.640;37.532;2023-05-29T21:51:38;7.22;;;2.72;;
43297;SDS011;28892;55.640;37.532;2023-05-29T21:54:07;7.88;;;2.40;;
43297;SDS011;28892;55.640;37.532;2023-05-29T21:56:33;6.13;;;2.38;;
43297;SDS011;28892;55.640;37.532;2023-05-29T21:59:09;5.32;;;2.33;;
43297;SDS011;28892;55.640;37.532;2023-05-29T22:01:37;4.72;;;2.70;;
43297;SDS011;28892;55.640;37.532;2023-05-29T22:04:05;3.45;;;2.50;;
43297;SDS011;28892;55.640;37.532;2023-05-29T22:06:33;4.93;;;2.40;;
43297;SDS011;28892;55.640;37.532;2023-05-29T22:09:01;5.90;;;2.60;;
43297;SDS011;28892;55.640;37.532;2023-05-29T22:11:30;7.25;;;2.40;;
43297;SDS011;28892;55.640;37.532;2023-05-29T22:13:59;5.25;;;2.10;;
43297;SDS011;28892;55.640;37.532;2023-05-29T22:16:27;5.75;;;2.10;;
43297;SDS011;28892;55.640;37.532;2023-05-29T22:18:58;3.78;;;2.30;;
43297;SDS011;28892;55.640;37.532;2023-05-29T22:21:28;3.22;;;2.30;;
43297;SDS011;28892;55.640;37.532;2023-05-29T22:23:59;5.95;;;2.38;;
43297;SDS011;28892;55.640;37.532;2023-05-29T22:26:25;6.03;;;2.47;;